Time;durP1;ratioP1;P1;durP2;ratioP2;P2;SDS_P1;SDS_P2;PMS_P1;PMS_P2;Temp;Humidity;BMP_temperature;BMP_pressure;BME280_temperature;BME280_humidity;BME280_pressure;Samples;Min_cycle;Max_cycle;Signal;HPM_P1;HPM_P2
2020/12/01 15:46:36;;;;;;;35.05;25.95;;;4.30;1.00;;;;;;5089561;27;20465;-54
2020/12/01 15:49:04;;;;;;;36.40;23.90;;;4.10;1.00;;;;;;5090442;28;20257;-56
2020/12/01 15:51:32;;;;;;;31.67;22.10;;;4.20;1.00;;;;;;5089988;28;20437;-54
2020/12/01 15:53:58;;;;;;;34.30;22.10;;;4.10;1.00;;;;;;5090499;28;20443;-54
2020/12/01 15:56:52;;;;;;;34.47;23.67;;;4.30;1.00;;;;;;5090620;28;20420;-55
2020/12/01 15:59:56;;;;;;;33.50;23.40;;;4.20;1.00;;;;;;5086485;28;20209;-56
2020/12/01 16:02:40;;;;;;;33.63;20.97;;;4.10;1.00;;;;;;5089094;28;20440;-57
2020/12/01 16:05:36;;;;;;;32.77;21.03;;;4.20;1.00;;;;;;5090110;28;20459;-56
2020/12/01 16:08:05;;;;;;;34.37;22.23;;;4.20;1.00;;;;;;5090720;28;20776;-56
2020/12/01 16:10:55;;;;;;;32.73;21.07;;;4.20;1.00;;;;;;5090606;28;20927;-57
2020/12/01 16:13:59;;;;;;;34.37;21.27;;;4.20;1.00;;;;;;5091145;28;20489;-56
2020/12/01 16:16:39;;;;;;;35.43;22.00;;;4.10;1.00;;;;;;5090587;28;20405;-56
2020/12/01 16:19:28;;;;;;;29.67;20.43;;;4.10;1.00;;;;;;5090050;28;20438;-56
2020/12/01 16:21:57;;;;;;;35.30;22.90;;;4.10;1.00;;;;;;5089923;28;20439;-56
2020/12/01 16:24:33;;;;;;;30.60;20.80;;;4.10;1.00;;;;;;5089397;28;20532;-56
2020/12/01 16:27:42;;;;;;;33.00;22.23;;;4.20;1.00;;;;;;5089993;28;20743;-56
2020/12/01 16:30:39;;;;;;;31.03;21.80;;;4.20;1.00;;;;;;5090073;28;20403;-57
2020/12/01 16:33:07;;;;;;;34.50;23.47;;;4.20;1.00;;;;;;5068764;28;20432;-55
2020/12/01 16:35:33;;;;;;;35.50;24.77;;;4.70;1.00;;;;;;5079202;28;20437;-56
2020/12/01 16:38:17;;;;;;;36.53;22.93;;;4.20;1.00;;;;;;5089608;28;20448;-55
2020/12/01 16:41:09;;;;;;;34.67;22.67;;;4.20;1.00;;;;;;5089675;28;20431;-58
2020/12/01 16:44:12;;;;;;;35.57;22.57;;;4.20;1.00;;;;;;5089626;28;20812;-56
2020/12/01 16:46:41;;;;;;;32.50;20.67;;;4.20;1.00;;;;;;5087113;28;20826;-55
2020/12/01 16:49:49;;;;;;;34.40;23.43;;;4.20;1.00;;;;;;5089882;28;20420;-56
2020/12/01 16:52:32;;;;;;;36.90;22.30;;;4.20;1.00;;;;;;5075060;28;20524;-56
2020/12/01 16:55:19;;;;;;;34.30;22.50;;;4.30;1.00;;;;;;5089368;28;20909;-56
2020/12/01 16:58:02;;;;;;;33.97;22.20;;;4.20;1.00;;;;;;5076063;28;20427;-56
2020/12/01 17:00:55;;;;;;;30.70;20.30;;;4.20;1.00;;;;;;5076426;28;20401;-55
2020/12/01 17:03:56;;;;;;;31.00;21.47;;;4.10;1.00;;;;;;5075917;28;20398;-54
2020/12/01 17:06:54;;;;;;;31.77;21.27;;;4.20;1.00;;;;;;5076098;28;20432;-55
2020/12/01 17:09:20;;;;;;;33.00;20.33;;;4.20;1.00;;;;;;5075157;28;20920;-55
2020/12/01 17:12:23;;;;;;;33.17;21.90;;;4.20;1.00;;;;;;5076172;28;20447;-57
2020/12/01 17:15:30;;;;;;;27.30;21.30;;;4.20;1.00;;;;;;5076044;28;20172;-55
2020/12/01 17:17:59;;;;;;;30.67;19.67;;;4.20;1.00;;;;;;5061950;28;20433;-54
2020/12/01 17:20:25;;;;;;;33.10;20.93;;;4.10;1.00;;;;;;5077231;28;20464;-55
2020/12/01 17:22:51;;;;;;;33.27;21.67;;;4.10;1.00;;;;;;5078669;28;20421;-55
2020/12/01 17:25:20;;;;;;;31.87;20.60;;;4.10;1.00;;;;;;5075928;28;20462;-55
2020/12/01 17:28:10;;;;;;;31.63;21.33;;;4.00;1.00;;;;;;5074509;28;20436;-54
2020/12/01 17:30:38;;;;;;;36.20;24.10;;;4.10;1.00;;;;;;5067857;28;20437;-55
2020/12/01 17:33:16;;;;;;;33.63;24.50;;;4.00;1.00;;;;;;5075728;28;20448;-55
2020/12/01 17:35:53;;;;;;;32.50;22.33;;;4.10;1.00;;;;;;5072918;28;20895;-54
2020/12/01 17:38:24;;;;;;;33.33;21.87;;;4.00;1.00;;;;;;5075201;28;20432;-53
2020/12/01 17:41:17;;;;;;;35.70;21.87;;;4.00;1.00;;;;;;5075387;28;20890;-54
2020/12/01 17:44:14;;;;;;;39.10;23.70;;;4.00;1.00;;;;;;5075258;28;20876;-54
2020/12/01 17:47:04;;;;;;;33.60;22.60;;;4.00;1.00;;;;;;5073548;28;20441;-54
2020/12/01 17:49:35;;;;;;;29.67;21.93;;;4.00;1.00;;;;;;5075002;28;20421;-55
2020/12/01 17:52:04;;;;;;;35.30;22.67;;;3.90;1.00;;;;;;5075118;28;20409;-54
2020/12/01 17:54:29;;;;;;;35.40;24.07;;;3.90;1.00;;;;;;5073750;28;20417;-59
2020/12/01 17:57:00;;;;;;;35.07;24.20;;;3.90;1.00;;;;;;5074725;28;20425;-54
2020/12/01 17:59:31;;;;;;;40.53;25.37;;;3.80;1.00;;;;;;5074167;28;20194;-54
2020/12/01 18:02:01;;;;;;;36.20;25.53;;;3.90;1.00;;;;;;5074538;28;20396;-54
2020/12/01 18:04:27;;;;;;;40.43;24.60;;;3.90;1.00;;;;;;5074775;28;20503;-54
2020/12/01 18:07:01;;;;;;;34.93;24.43;;;3.90;1.00;;;;;;5073438;28;20431;-55
2020/12/01 18:09:27;;;;;;;39.07;24.33;;;3.90;1.00;;;;;;5074917;28;20467;-54
2020/12/01 18:12:03;;;;;;;45.07;26.30;;;3.90;1.00;;;;;;5071046;28;20524;-54
2020/12/01 18:14:34;;;;;;;40.60;26.77;;;3.90;1.00;;;;;;5069835;28;20432;-54
2020/12/01 18:17:08;;;;;;;42.67;26.40;;;3.90;1.00;;;;;;5074277;28;20902;-55
2020/12/01 18:19:55;;;;;;;42.40;25.37;;;3.90;1.00;;;;;;5074262;28;20487;-54
2020/12/01 18:22:46;;;;;;;38.43;25.37;;;3.90;1.00;;;;;;5073479;28;20949;-54
2020/12/01 18:25:39;;;;;;;38.53;26.50;;;3.80;1.00;;;;;;5054421;28;20918;-53
2020/12/01 18:28:14;;;;;;;42.13;26.03;;;3.80;1.00;;;;;;5070967;28;20464;-54
2020/12/01 18:30:40;;;;;;;36.40;25.00;;;3.90;1.00;;;;;;5074379;28;20910;-55
2020/12/01 18:33:46;;;;;;;39.10;25.53;;;3.80;1.00;;;;;;5073900;28;20433;-53
2020/12/01 18:36:13;;;;;;;40.53;26.27;;;3.80;1.00;;;;;;5069997;28;20449;-53
2020/12/01 18:38:40;;;;;;;36.23;23.90;;;3.80;1.00;;;;;;5074340;28;20432;-55
2020/12/01 18:41:14;;;;;;;42.73;25.37;;;3.70;1.00;;;;;;5074020;28;20433;-54
2020/12/01 18:43:56;;;;;;;38.33;25.40;;;3.80;1.00;;;;;;5073105;28;20747;-53
2020/12/01 18:46:22;;;;;;;40.70;26.17;;;3.70;1.00;;;;;;5055982;28;20560;-54
2020/12/01 18:48:49;;;;;;;41.57;25.67;;;3.60;1.00;;;;;;5063912;28;20800;-55
2020/12/01 18:51:15;;;;;;;42.10;26.53;;;3.70;1.00;;;;;;5069404;28;20452;-55
2020/12/01 18:53:41;;;;;;;43.97;26.70;;;3.60;1.00;;;;;;5054513;28;20436;-54
2020/12/01 18:56:07;;;;;;;37.77;25.00;;;3.70;1.00;;;;;;5059446;28;20825;-54
2020/12/01 18:58:37;;;;;;;40.90;26.60;;;3.60;1.00;;;;;;5073828;28;20164;-54
2020/12/01 19:01:11;;;;;;;43.13;26.27;;;3.70;1.00;;;;;;5073710;28;20414;-53
2020/12/01 19:03:40;;;;;;;42.93;27.13;;;3.70;1.00;;;;;;5073722;28;20416;-54
2020/12/01 19:06:07;;;;;;;41.60;26.30;;;3.70;1.00;;;;;;5073560;28;20464;-55
2020/12/01 19:08:34;;;;;;;42.80;28.10;;;3.80;1.00;;;;;;5073412;28;20903;-54
2020/12/01 19:10:59;;;;;;;40.47;25.67;;;3.80;1.00;;;;;;5072908;28;20752;-54
2020/12/01 19:13:27;;;;;;;44.33;27.47;;;3.80;1.00;;;;;;5069996;28;20445;-55
2020/12/01 19:15:53;;;;;;;41.50;25.47;;;3.80;1.00;;;;;;5068931;28;20582;-55
2020/12/01 19:18:19;;;;;;;41.97;27.03;;;3.90;1.00;;;;;;5073284;28;20425;-54
2020/12/01 19:20:45;;;;;;;42.73;25.83;;;4.00;1.00;;;;;;5073040;28;20879;-55
2020/12/01 19:23:11;;;;;;;40.60;26.10;;;4.00;1.00;;;;;;5073524;28;20420;-55
2020/12/01 19:25:37;;;;;;;38.53;25.20;;;4.00;1.00;;;;;;5072630;28;20199;-55
2020/12/01 19:28:04;;;;;;;42.27;25.03;;;4.00;1.00;;;;;;5072542;28;20175;-54
2020/12/01 19:30:30;;;;;;;35.73;25.83;;;4.00;1.00;;;;;;5072896;28;20897;-55
2020/12/01 19:32:57;;;;;;;39.67;26.70;;;3.90;1.00;;;;;;5066935;28;20455;-55
2020/12/01 19:35:23;;;;;;;42.03;26.90;;;4.00;1.00;;;;;;5072477;28;20476;-54
2020/12/01 19:37:49;;;;;;;35.33;26.20;;;3.90;1.00;;;;;;5073197;28;20524;-54
2020/12/01 19:40:17;;;;;;;40.07;25.83;;;3.80;1.00;;;;;;5073284;28;20428;-54
2020/12/01 19:42:43;;;;;;;40.00;26.50;;;3.80;1.00;;;;;;5071025;28;20557;-54
2020/12/01 19:45:09;;;;;;;42.17;26.10;;;3.70;1.00;;;;;;5070202;28;20508;-55
2020/12/01 19:47:35;;;;;;;41.17;26.80;;;3.70;1.00;;;;;;5073133;28;20520;-54
2020/12/01 19:50:01;;;;;;;45.40;27.70;;;3.60;1.00;;;;;;5072807;28;20916;-54
2020/12/01 19:52:27;;;;;;;46.70;28.40;;;3.60;1.00;;;;;;5082840;28;20580;-56
2020/12/01 19:54:53;;;;;;;37.63;24.97;;;3.70;1.00;;;;;;5067654;28;20463;-54
2020/12/01 19:57:19;;;;;;;42.27;26.23;;;3.60;1.00;;;;;;5072013;28;20209;-54
2020/12/01 19:59:46;;;;;;;39.13;23.63;;;3.60;1.00;;;;;;5072708;28;20176;-53
2020/12/01 20:02:14;;;;;;;41.27;25.83;;;3.70;1.00;;;;;;5072796;28;20526;-55
2020/12/01 20:04:39;;;;;;;41.27;24.97;;;3.60;1.00;;;;;;5072727;28;20457;-55
2020/12/01 20:07:05;;;;;;;40.77;24.43;;;3.50;1.00;;;;;;5073046;28;20860;-55
2020/12/01 20:09:31;;;;;;;39.50;24.07;;;3.50;1.00;;;;;;5073050;28;20184;-55
2020/12/01 20:11:57;;;;;;;37.27;22.30;;;3.50;1.00;;;;;;5072936;28;20173;-55
2020/12/01 20:14:23;;;;;;;43.17;25.90;;;3.50;1.00;;;;;;5073016;28;20451;-54
2020/12/01 20:16:49;;;;;;;33.23;22.90;;;3.40;1.00;;;;;;5072082;28;20437;-54
2020/12/01 20:19:15;;;;;;;39.73;22.70;;;3.40;1.00;;;;;;5072518;28;20817;-54
2020/12/01 20:21:41;;;;;;;40.37;25.63;;;3.40;1.00;;;;;;5072658;28;20264;-55
2020/12/01 20:24:07;;;;;;;41.33;23.23;;;3.40;1.00;;;;;;5072841;28;20263;-56
2020/12/01 20:26:33;;;;;;;37.50;22.93;;;3.50;1.00;;;;;;5072823;28;20218;-57
2020/12/01 20:29:00;;;;;;;40.73;23.80;;;3.40;1.00;;;;;;5071933;28;20807;-57
2020/12/01 20:31:27;;;;;;;42.90;23.70;;;3.40;1.00;;;;;;5073022;28;20452;-57
2020/12/01 20:33:54;;;;;;;38.50;23.70;;;3.30;1.00;;;;;;5076745;28;20455;-56
2020/12/01 20:36:45;;;;;;;36.33;23.27;;;3.30;1.00;;;;;;5076514;28;20421;-57
2020/12/01 20:39:48;;;;;;;32.47;21.57;;;3.30;1.00;;;;;;5075202;28;20948;-55
2020/12/01 20:42:14;;;;;;;38.80;23.23;;;3.30;1.00;;;;;;5076558;28;20422;-56
2020/12/01 20:44:40;;;;;;;38.83;24.07;;;3.30;1.00;;;;;;5074627;28;20490;-56
2020/12/01 20:47:06;;;;;;;44.23;24.27;;;3.30;1.00;;;;;;5075766;28;21009;-56
2020/12/01 20:49:32;;;;;;;36.57;22.77;;;3.30;1.00;;;;;;5076472;28;20456;-57
2020/12/01 20:51:59;;;;;;;34.57;21.80;;;3.20;1.00;;;;;;5067427;28;20486;-57
2020/12/01 20:54:26;;;;;;;43.00;23.10;;;3.30;1.00;;;;;;5070107;28;20433;-56
2020/12/01 20:56:52;;;;;;;38.50;22.63;;;3.40;1.00;;;;;;5076225;28;20435;-57
2020/12/01 20:59:19;;;;;;;35.17;23.60;;;3.30;1.00;;;;;;5076246;28;20412;-56
2020/12/01 21:01:46;;;;;;;35.30;21.77;;;3.30;1.00;;;;;;5076149;28;20421;-57
2020/12/01 21:04:13;;;;;;;34.97;22.53;;;3.20;1.00;;;;;;5075797;28;20425;-58
2020/12/01 21:06:39;;;;;;;34.60;22.57;;;3.20;1.00;;;;;;5082186;28;20564;-57
2020/12/01 21:09:09;;;;;;;38.80;23.07;;;3.20;1.00;;;;;;5075505;28;20523;-57
2020/12/01 21:11:54;;;;;;;38.07;23.40;;;3.10;1.00;;;;;;5075194;28;20181;-57
2020/12/01 21:14:24;;;;;;;37.20;22.90;;;3.10;1.00;;;;;;5075897;28;20427;-57
2020/12/01 21:17:00;;;;;;;40.20;22.13;;;3.10;1.00;;;;;;5075194;28;20806;-58
2020/12/01 21:19:27;;;;;;;38.33;22.40;;;3.00;1.00;;;;;;5075002;28;20786;-57
2020/12/01 21:22:13;;;;;;;37.03;22.93;;;3.00;1.00;;;;;;5075510;28;20436;-58
2020/12/01 21:24:39;;;;;;;34.30;22.87;;;3.00;1.00;;;;;;5075026;28;20451;-56
2020/12/01 21:27:10;;;;;;;42.30;23.93;;;3.00;1.00;;;;;;5076437;28;20455;-55
2020/12/01 21:29:52;;;;;;;38.10;25.90;;;2.90;1.00;;;;;;5075176;28;20187;-57
2020/12/01 21:32:22;;;;;;;39.00;23.63;;;2.90;1.00;;;;;;5075549;28;20392;-57
2020/12/01 21:34:54;;;;;;;39.10;24.00;;;2.90;1.00;;;;;;5075310;28;20861;-56
2020/12/01 21:37:22;;;;;;;39.97;26.83;;;2.90;1.00;;;;;;5075495;28;21037;-56
2020/12/01 21:39:47;;;;;;;37.27;22.57;;;2.90;1.00;;;;;;5075865;28;20422;-58
2020/12/01 21:42:36;;;;;;;35.40;23.53;;;2.80;1.00;;;;;;5075162;28;20515;-57
2020/12/01 21:45:01;;;;;;;39.53;21.73;;;2.80;1.00;;;;;;5074838;28;20231;-58
2020/12/01 21:47:28;;;;;;;37.27;23.10;;;2.90;1.00;;;;;;5075006;28;20435;-55
2020/12/01 21:49:56;;;;;;;33.40;22.87;;;2.90;1.00;;;;;;5091186;28;20172;-55
2020/12/01 21:52:36;;;;;;;37.43;24.00;;;2.80;1.00;;;;;;5089058;28;20436;-54
2020/12/01 21:55:09;;;;;;;42.70;24.33;;;2.70;1.00;;;;;;5074972;28;20427;-55
2020/12/01 21:57:52;;;;;;;36.67;23.90;;;2.70;1.00;;;;;;5075818;28;20816;-58
2020/12/01 22:00:21;;;;;;;41.80;24.00;;;2.60;1.00;;;;;;5075249;28;20442;-54
2020/12/01 22:03:20;;;;;;;38.33;22.87;;;2.70;1.00;;;;;;5074832;28;20467;-54
2020/12/01 22:05:56;;;;;;;33.43;22.37;;;2.70;1.00;;;;;;5086036;28;20458;-56
2020/12/01 22:08:37;;;;;;;36.53;22.60;;;2.70;1.00;;;;;;5095172;28;20411;-57
2020/12/01 22:11:10;;;;;;;34.70;22.07;;;2.80;1.00;;;;;;5082833;28;20743;-57
2020/12/01 22:14:04;;;;;;;42.93;25.57;;;2.70;1.00;;;;;;5073835;28;20457;-56
2020/12/01 22:16:36;;;;;;;38.37;22.60;;;2.70;1.00;;;;;;5074335;28;20427;-55
2020/12/01 22:19:07;;;;;;;41.20;23.77;;;2.70;1.00;;;;;;5074595;28;20411;-57
2020/12/01 22:22:05;;;;;;;35.87;22.33;;;2.60;1.00;;;;;;5074533;28;20556;-57
2020/12/01 22:24:58;;;;;;;38.97;22.63;;;2.60;1.00;;;;;;5060775;28;20452;-56
2020/12/01 22:27:57;;;;;;;35.03;21.30;;;2.60;1.00;;;;;;5094799;28;20465;-56
2020/12/01 22:30:44;;;;;;;32.90;21.30;;;2.60;1.00;;;;;;5074257;28;20703;-56
2020/12/01 22:33:28;;;;;;;34.13;21.00;;;2.60;1.00;;;;;;5074328;28;20896;-56
2020/12/01 22:36:04;;;;;;;37.83;22.43;;;2.60;1.00;;;;;;5074134;28;20449;-56
2020/12/01 22:38:32;;;;;;;30.80;21.33;;;2.60;1.00;;;;;;5073826;28;20793;-58
2020/12/01 22:41:03;;;;;;;34.93;23.60;;;2.60;1.00;;;;;;5073049;28;20442;-56
2020/12/01 22:44:05;;;;;;;36.73;21.40;;;2.60;1.00;;;;;;5074131;28;20867;-55
2020/12/01 22:46:47;;;;;;;35.67;21.23;;;2.60;1.00;;;;;;5075333;28;20458;-54
2020/12/01 22:49:44;;;;;;;37.70;22.20;;;2.60;1.00;;;;;;5074019;28;20399;-56
2020/12/01 22:52:31;;;;;;;33.67;20.30;;;2.50;1.00;;;;;;5071050;28;20548;-55
2020/12/01 22:55:01;;;;;;;45.67;26.20;;;2.50;1.00;;;;;;5072910;28;20452;-56
2020/12/01 22:57:45;;;;;;;34.73;22.53;;;2.40;1.00;;;;;;5073816;28;20423;-56
2020/12/01 23:00:20;;;;;;;37.10;23.17;;;2.40;1.00;;;;;;5073400;28;20430;-56
2020/12/01 23:02:45;;;;;;;31.17;20.70;;;2.40;1.00;;;;;;5073772;28;20406;-54
2020/12/01 23:05:12;;;;;;;36.20;23.13;;;2.40;1.00;;;;;;5073317;28;20484;-56
2020/12/01 23:08:06;;;;;;;32.00;22.00;;;2.40;1.00;;;;;;5073405;28;20178;-54
2020/12/01 23:10:35;;;;;;;33.80;21.70;;;2.40;1.00;;;;;;5072007;28;20433;-55
2020/12/01 23:13:29;;;;;;;35.83;22.20;;;2.40;1.00;;;;;;5072874;28;20427;-54
2020/12/01 23:15:58;;;;;;;36.30;22.37;;;2.40;1.00;;;;;;5073682;28;20796;-55
2020/12/01 23:18:27;;;;;;;35.83;22.57;;;2.30;1.00;;;;;;5073258;28;20446;-54
2020/12/01 23:20:53;;;;;;;37.13;22.33;;;2.40;1.00;;;;;;5072877;28;20474;-54
2020/12/01 23:23:19;;;;;;;39.17;22.63;;;2.30;1.00;;;;;;5073218;28;20799;-56
2020/12/01 23:25:44;;;;;;;36.20;23.07;;;2.40;1.00;;;;;;5085126;28;20465;-53
2020/12/01 23:28:15;;;;;;;36.13;22.27;;;2.30;1.00;;;;;;5078371;28;20285;-53
2020/12/01 23:30:46;;;;;;;34.47;21.57;;;2.30;1.00;;;;;;5073359;28;20174;-53
2020/12/01 23:33:18;;;;;;;34.07;22.37;;;2.30;1.00;;;;;;5073550;28;20415;-56
2020/12/01 23:35:45;;;;;;;36.07;22.13;;;2.20;1.00;;;;;;5073497;28;20420;-57
2020/12/01 23:38:19;;;;;;;36.10;22.07;;;2.20;1.00;;;;;;5073448;28;20430;-53
2020/12/01 23:40:44;;;;;;;36.33;23.33;;;2.20;1.00;;;;;;5072904;28;20443;-53
2020/12/01 23:43:30;;;;;;;37.30;21.83;;;2.20;1.00;;;;;;5073165;28;20425;-56
2020/12/01 23:46:14;;;;;;;36.50;23.40;;;2.20;1.00;;;;;;5073029;28;20239;-53
2020/12/01 23:48:42;;;;;;;34.13;22.17;;;2.20;1.00;;;;;;5091162;28;20438;-56
2020/12/01 23:51:14;;;;;;;33.20;20.93;;;2.20;1.00;;;;;;5082409;28;20439;-57
2020/12/01 23:53:41;;;;;;;38.40;22.00;;;2.10;1.00;;;;;;5073049;28;20415;-55
2020/12/01 23:56:06;;;;;;;32.10;20.83;;;2.10;1.00;;;;;;5073255;28;20451;-56
2020/12/01 23:58:33;;;;;;;34.27;21.37;;;2.10;1.00;;;;;;5073160;28;20466;-56
